LSZU weather

Buttwil Airport
Canton of Aargau, Switzerland

Public forecast

Using degrees Celsius for public forecast. Weather courtesy of forecast.io.

Closest aviation weather report (METAR) to Buttwil Airport

Closest report is Emmen Air Base, 10.3 nm (19.2 km) S. Retrieved 2019/11/22 01:20 UTC (25 minutes ago):

LSME 220120Z AUTO 26004KT 9999NDV SCT010 OVC012 04/01 Q1009 RMK

Closest aviation forecast (TAF) to Buttwil Airport

Forecast is more than 6 hours old.

Closest forecast is Emmen Air Base, 10.3 nm (19.2 km) S. Retrieved 2019/11/21 17:00 UTC (9 hours ago):

TAF LSME 211625Z 2117/2223 VRB03KT 5000 BR OVC010 BECMG 2117/2120 4000 OVC006 BECMG 2209/2212 6000 OVC010 PROB40 2212/2220 9999 FEW012